Leader Sw — 3EEY7 — position and weather

sailwx.info

Track history (hours):
 
Tides and Currents Weather Stations Pressure Air Temp Water Temp Dewpoint Dewpoint Depression Visibility Wind Speed Wind Dir Waves Ship Positions

Leader Sw

Last reported at 2017-Dec-07 11:22 UTC. Time now 2018-Jan-19 15:27 UTC.
Position N 23°59' E 118°19'.
Warning: this ship's position is 43 days out of date.

Length 117 m; draft 8 m.

Type: Cargo ship. MMSI: 371968000.

Date/timePositionNaut miles runAvg speedWind from/ knotsBaromVisibWave heightAir tempDewpointWater temp
2017-Dec-07 11:22N 23°59' E 118°19'912.0
2017-Dec-07 10:36N 24°06' E 118°26'111.9
2017-Dec-07 10:30N 24°06' E 118°27'1012.0
2017-Dec-07 09:39N 24°12' E 118°36'212.3
2017-Dec-07 09:28N 24°14' E 118°38'612.3
2017-Dec-07 09:00N 24°18' E 118°43'  
2017-Dec-01 19:28N 34°25' E 138°25'5 9.7
2017-Dec-01 18:55N 34°29' E 138°28'3 7.8
2017-Dec-01 18:30N 34°31' E 138°32'4 8.0
2017-Dec-01 17:58N 34°31' E 138°37'13 8.2
2017-Dec-01 16:22N 34°31' E 138°53'3 9.0
2017-Dec-01 16:00N 34°31' E 138°57'6 9.2
2017-Dec-01 15:21N 34°35' E 139°02'4 9.6
2017-Dec-01 14:56N 34°38' E 139°06'4 9.5
2017-Dec-01 14:30N 34°41' E 139°09'510.2
2017-Dec-01 14:00N 34°45' E 139°13'5 9.7
2017-Dec-01 13:29N 34°48' E 139°17'6 9.2
2017-Dec-01 12:51N 34°52' E 139°22'3 9.3
2017-Dec-01 12:30N 34°54' E 139°25'5 9.2
2017-Dec-01 12:00N 34°57' E 139°30'5 9.4
2017-Dec-01 11:30N 35°00' E 139°34'510.9
2017-Dec-01 11:00N 35°04' E 139°39'611.4
2017-Dec-01 10:30N 35°07' E 139°44'612.1
2017-Dec-01 10:00N 35°13' E 139°46'611.9
2017-Dec-01 09:30N 35°19' E 139°43'5 9.6
2017-Dec-01 09:01N 35°23' E 139°43'3 6.7
2017-Dec-01 08:30N 35°27' E 139°41'1 1.7
2017-Dec-01 07:59N 35°27' E 139°40'0 0.0
2017-Dec-01 07:29N 35°27' E 139°40'0 0.0
2017-Dec-01 06:59N 35°27' E 139°40'0 0.0
2017-Dec-01 06:29N 35°27' E 139°40'0 0.0
2017-Dec-01 05:59N 35°27' E 139°40'0 0.0
2017-Dec-01 05:29N 35°27' E 139°40'0 0.0
2017-Dec-01 04:59N 35°27' E 139°40'0 0.0
2017-Dec-01 04:29N 35°27' E 139°40'0 0.0
2017-Dec-01 03:59N 35°27' E 139°40'0 0.0
2017-Dec-01 03:29N 35°27' E 139°40'0 0.0
2017-Dec-01 02:59N 35°27' E 139°40'0 0.0
2017-Dec-01 02:29N 35°27' E 139°40'0 0.0
2017-Dec-01 01:59N 35°27' E 139°40'0 0.0
2017-Dec-01 01:29N 35°27' E 139°40'0 0.0
2017-Dec-01 00:59N 35°27' E 139°40'0 0.0
2017-Dec-01 00:29N 35°27' E 139°40'0 0.0
2017-Nov-30 23:59N 35°27' E 139°40'0 0.0
2017-Nov-30 23:29N 35°27' E 139°40'0 0.0
2017-Nov-30 22:59N 35°27' E 139°40'0 0.0
2017-Nov-30 22:29N 35°27' E 139°40'0 0.0
2017-Nov-30 21:59N 35°27' E 139°40'0 0.0
2017-Nov-30 21:29N 35°27' E 139°40'0 0.0
2017-Nov-30 20:59N 35°27' E 139°40'0 0.0
2017-Nov-30 20:29N 35°27' E 139°40'0 0.0
2017-Nov-30 19:59N 35°27' E 139°40'0 0.0
2017-Nov-30 19:29N 35°27' E 139°40'0 0.0
2017-Nov-30 18:59N 35°27' E 139°40'0 0.0
2017-Nov-30 18:29N 35°27' E 139°40'0 0.0
2017-Nov-30 17:59N 35°27' E 139°40'0 0.0
2017-Nov-30 17:29N 35°27' E 139°40'0 0.0
2017-Nov-30 16:59N 35°27' E 139°40'0 0.0
2017-Nov-30 16:29N 35°27' E 139°40'0 0.0
2017-Nov-30 15:59N 35°27' E 139°40'0 0.0
2017-Nov-30 15:29N 35°27' E 139°40'0 0.0
2017-Nov-30 14:59N 35°27' E 139°40'0 0.0
2017-Nov-30 14:29N 35°27' E 139°40'0 0.0
2017-Nov-30 13:59N 35°27' E 139°40'0 0.0
2017-Nov-30 13:29N 35°27' E 139°40'0 0.0
2017-Nov-30 12:59N 35°27' E 139°40'0 0.0
2017-Nov-30 12:29N 35°27' E 139°40'0 0.0
2017-Nov-30 11:59N 35°27' E 139°40'0 0.0
2017-Nov-30 11:29N 35°27' E 139°40'0 0.0
2017-Nov-30 10:59N 35°27' E 139°40'0 0.0
2017-Nov-30 10:29N 35°27' E 139°40'0 0.0
2017-Nov-30 09:59N 35°27' E 139°40'0 0.0
2017-Nov-30 09:29N 35°27' E 139°40'0 0.0
2017-Nov-30 08:59N 35°27' E 139°40'0 0.0
2017-Nov-30 08:29N 35°27' E 139°40'0 0.0
2017-Nov-30 07:59N 35°27' E 139°40'0 0.0
2017-Nov-30 07:29N 35°27' E 139°40'0 0.0
2017-Nov-30 06:59N 35°27' E 139°40'0 0.0
2017-Nov-30 06:29N 35°27' E 139°40'0 0.0
2017-Nov-30 05:59N 35°27' E 139°40'0 0.0
2017-Nov-30 05:29N 35°27' E 139°40'0 0.0
2017-Nov-30 04:59N 35°27' E 139°40'0 0.0
2017-Nov-30 04:28N 35°27' E 139°40'0 0.0
2017-Nov-30 03:55N 35°27' E 139°40'0 0.0
2017-Nov-30 03:28N 35°27' E 139°40'0 0.0
2017-Nov-30 02:59N 35°27' E 139°40'0 0.0
2017-Nov-30 02:28N 35°27' E 139°40'0 0.0
2017-Nov-30 01:58N 35°27' E 139°40'0 0.0
2017-Nov-30 01:28N 35°27' E 139°40'0 0.0
2017-Nov-30 00:55N 35°27' E 139°40'0 0.0
2017-Nov-30 00:25N 35°27' E 139°40'0 0.0
2017-Nov-29 23:58N 35°27' E 139°40'0 0.0
2017-Nov-29 23:28N 35°27' E 139°40'0 0.0
2017-Nov-29 22:58N 35°27' E 139°40'0 0.0
2017-Nov-29 22:28N 35°27' E 139°40'0 0.8
2017-Nov-29 22:00N 35°27' E 139°41'2 4.6
2017-Nov-29 21:30N 35°25' E 139°43'3 5.9
2017-Nov-29 21:00N 35°23' E 139°43'5 9.1
2017-Nov-29 20:31N 35°18' E 139°44'5 9.6
2017-Nov-29 20:00N 35°14' E 139°47'4 8.6
2017-Nov-29 19:30N 35°09' E 139°47'4 8.3
2017-Nov-29 19:00N 35°05' E 139°46'4 8.6
2017-Nov-29 18:30N 35°03' E 139°41'4 8.8
2017-Nov-29 18:00N 35°00' E 139°37'5 9.7
2017-Nov-29 17:30N 34°57' E 139°33'610.6
2017-Nov-29 16:59N 34°54' E 139°27'510.7
2017-Nov-29 16:29N 34°51' E 139°22'510.7
2017-Nov-29 16:00N 34°48' E 139°17'5 9.6
2017-Nov-29 15:30N 34°44' E 139°13'5 9.2
2017-Nov-29 15:00N 34°41' E 139°09'5 9.1
2017-Nov-29 14:30N 34°38' E 139°05'5 8.9
2017-Nov-29 13:56N 34°34' E 139°01'410.0
2017-Nov-29 13:30N 34°31' E 138°57'710.4
2017-Nov-29 12:49N 34°28' E 138°49'512.2
2017-Nov-29 12:25N 34°26' E 138°44'512.1
2017-Nov-29 12:00N 34°24' E 138°38'811.6
2017-Nov-29 11:19N 34°21' E 138°30'411.4
2017-Nov-29 10:59N 34°19' E 138°26'511.0
2017-Nov-29 10:30N 34°17' E 138°20'16610.1
2017-Nov-28 18:06N 33°44' E 135°03'510.9
2017-Nov-28 17:38N 33°47' E 134°58'110.7
2017-Nov-28 17:29N 33°48' E 134°57'6 9.6
2017-Nov-28 16:50N 33°54' E 134°56'310.5
2017-Nov-28 16:30N 33°58' E 134°56'510.5
2017-Nov-28 16:00N 34°03' E 134°56'1111.2
2017-Nov-28 15:00N 34°14' E 134°58'611.7
2017-Nov-28 14:30N 34°20' E 134°59'611.4
2017-Nov-28 14:00N 34°24' E 135°04'611.9
2017-Nov-28 13:30N 34°28' E 135°09'611.4
2017-Nov-28 13:00N 34°33' E 135°13'611.0
2017-Nov-28 12:30N 34°38' E 135°17'3 6.9
2017-Nov-28 12:00N 34°40' E 135°14'0 0.9
2017-Nov-28 11:29N 34°40' E 135°13'0 0.0
2017-Nov-28 10:59N 34°40' E 135°13'0 0.1
2017-Nov-28 10:29N 34°40' E 135°14'0 0.1
2017-Nov-28 09:59N 34°40' E 135°13'0 0.0
2017-Nov-28 09:29N 34°40' E 135°13'0 0.0
2017-Nov-28 08:59N 34°40' E 135°13'0 0.0
2017-Nov-28 08:29N 34°40' E 135°13'0 0.0
2017-Nov-28 07:59N 34°40' E 135°13'0 0.0
2017-Nov-28 07:29N 34°40' E 135°13'0 0.0
2017-Nov-28 06:59N 34°40' E 135°13'0 0.0
2017-Nov-28 06:29N 34°40' E 135°13'0 0.0
2017-Nov-28 05:59N 34°40' E 135°13'0 0.0
2017-Nov-28 05:29N 34°40' E 135°13'0 0.0
2017-Nov-28 04:29N 34°40' E 135°13'0 0.0
2017-Nov-28 03:59N 34°40' E 135°13'0 0.0
2017-Nov-28 03:29N 34°40' E 135°13'0 0.0
2017-Nov-28 02:59N 34°40' E 135°13'0 0.0
2017-Nov-28 02:29N 34°40' E 135°13'0 0.0
2017-Nov-28 01:59N 34°40' E 135°13'0 0.0
2017-Nov-28 01:29N 34°40' E 135°13'0 0.0
2017-Nov-28 00:59N 34°40' E 135°13'0 0.0
2017-Nov-28 00:29N 34°40' E 135°13'0 0.0
2017-Nov-27 23:59N 34°40' E 135°13'0 0.0
2017-Nov-27 23:29N 34°40' E 135°13'0 0.0
2017-Nov-27 22:59N 34°40' E 135°13'0 0.0
2017-Nov-27 22:29N 34°40' E 135°13'0 0.0
2017-Nov-27 21:59N 34°40' E 135°13'0 0.0
2017-Nov-27 21:29N 34°40' E 135°13'0 0.0
2017-Nov-27 20:59N 34°40' E 135°13'0 0.0
2017-Nov-27 20:29N 34°40' E 135°13'0 0.0
2017-Nov-27 19:59N 34°40' E 135°13'0 0.0
2017-Nov-27 19:29N 34°40' E 135°13'0 0.0
2017-Nov-27 18:59N 34°40' E 135°13'0 0.0
2017-Nov-27 18:29N 34°40' E 135°13'0 0.0
2017-Nov-27 17:59N 34°40' E 135°13'0 0.0
2017-Nov-27 17:29N 34°40' E 135°13'0 0.0
2017-Nov-27 16:59N 34°40' E 135°13'0 0.0
2017-Nov-27 16:29N 34°40' E 135°13'0 0.0
2017-Nov-27 15:59N 34°40' E 135°13'0 0.0
2017-Nov-27 15:29N 34°40' E 135°13'0 0.0
2017-Nov-27 14:59N 34°40' E 135°13'0 0.0
2017-Nov-27 14:29N 34°40' E 135°13'0 0.0
2017-Nov-27 13:59N 34°40' E 135°13'0 0.0
2017-Nov-27 13:29N 34°40' E 135°13'0 0.0
2017-Nov-27 12:59N 34°40' E 135°13'0 0.0
2017-Nov-27 12:29N 34°40' E 135°13'0 0.0
2017-Nov-27 11:59N 34°40' E 135°13'0 0.0
2017-Nov-27 11:29N 34°40' E 135°13'  
Track history (hours):
 
Tides and Currents Weather Stations Pressure Air Temp Water Temp Dewpoint Dewpoint Depression Visibility Wind Speed Wind Dir Waves Ship Positions

Leader Sw

Last reported at 2017-Dec-07 11:22 UTC. Time now 2018-Jan-19 15:27 UTC.
Position N 23°59' E 118°19'.
Warning: this ship's position is 43 days out of date.

Length 117 m; draft 8 m.

Type: Cargo ship. MMSI: 371968000.

Date/timePositionNaut miles runAvg speedWind from/ knotsBaromVisibWave heightAir tempDewpointWater temp
2017-Dec-07 11:22N 23°59' E 118°19'912.0
2017-Dec-07 10:36N 24°06' E 118°26'111.9
2017-Dec-07 10:30N 24°06' E 118°27'1012.0
2017-Dec-07 09:39N 24°12' E 118°36'212.3
2017-Dec-07 09:28N 24°14' E 118°38'612.3
2017-Dec-07 09:00N 24°18' E 118°43'  
2017-Dec-01 19:28N 34°25' E 138°25'5 9.7
2017-Dec-01 18:55N 34°29' E 138°28'3 7.8
2017-Dec-01 18:30N 34°31' E 138°32'4 8.0
2017-Dec-01 17:58N 34°31' E 138°37'13 8.2
2017-Dec-01 16:22N 34°31' E 138°53'3 9.0
2017-Dec-01 16:00N 34°31' E 138°57'6 9.2
2017-Dec-01 15:21N 34°35' E 139°02'4 9.6
2017-Dec-01 14:56N 34°38' E 139°06'4 9.5
2017-Dec-01 14:30N 34°41' E 139°09'510.2
2017-Dec-01 14:00N 34°45' E 139°13'5 9.7
2017-Dec-01 13:29N 34°48' E 139°17'6 9.2
2017-Dec-01 12:51N 34°52' E 139°22'3 9.3
2017-Dec-01 12:30N 34°54' E 139°25'5 9.2
2017-Dec-01 12:00N 34°57' E 139°30'5 9.4
2017-Dec-01 11:30N 35°00' E 139°34'510.9
2017-Dec-01 11:00N 35°04' E 139°39'611.4
2017-Dec-01 10:30N 35°07' E 139°44'612.1
2017-Dec-01 10:00N 35°13' E 139°46'611.9
2017-Dec-01 09:30N 35°19' E 139°43'5 9.6
2017-Dec-01 09:01N 35°23' E 139°43'3 6.7
2017-Dec-01 08:30N 35°27' E 139°41'1 1.7
2017-Dec-01 07:59N 35°27' E 139°40'0 0.0
2017-Dec-01 07:29N 35°27' E 139°40'0 0.0
2017-Dec-01 06:59N 35°27' E 139°40'0 0.0
2017-Dec-01 06:29N 35°27' E 139°40'0 0.0
2017-Dec-01 05:59N 35°27' E 139°40'0 0.0
2017-Dec-01 05:29N 35°27' E 139°40'0 0.0
2017-Dec-01 04:59N 35°27' E 139°40'0 0.0
2017-Dec-01 04:29N 35°27' E 139°40'0 0.0
2017-Dec-01 03:59N 35°27' E 139°40'0 0.0
2017-Dec-01 03:29N 35°27' E 139°40'0 0.0
2017-Dec-01 02:59N 35°27' E 139°40'0 0.0
2017-Dec-01 02:29N 35°27' E 139°40'0 0.0
2017-Dec-01 01:59N 35°27' E 139°40'0 0.0
2017-Dec-01 01:29N 35°27' E 139°40'0 0.0
2017-Dec-01 00:59N 35°27' E 139°40'0 0.0
2017-Dec-01 00:29N 35°27' E 139°40'0 0.0
2017-Nov-30 23:59N 35°27' E 139°40'0 0.0
2017-Nov-30 23:29N 35°27' E 139°40'0 0.0
2017-Nov-30 22:59N 35°27' E 139°40'0 0.0
2017-Nov-30 22:29N 35°27' E 139°40'0 0.0
2017-Nov-30 21:59N 35°27' E 139°40'0 0.0
2017-Nov-30 21:29N 35°27' E 139°40'0 0.0
2017-Nov-30 20:59N 35°27' E 139°40'0 0.0
2017-Nov-30 20:29N 35°27' E 139°40'0 0.0
2017-Nov-30 19:59N 35°27' E 139°40'0 0.0
2017-Nov-30 19:29N 35°27' E 139°40'0 0.0
2017-Nov-30 18:59N 35°27' E 139°40'0 0.0
2017-Nov-30 18:29N 35°27' E 139°40'0 0.0
2017-Nov-30 17:59N 35°27' E 139°40'0 0.0
2017-Nov-30 17:29N 35°27' E 139°40'0 0.0
2017-Nov-30 16:59N 35°27' E 139°40'0 0.0
2017-Nov-30 16:29N 35°27' E 139°40'0 0.0
2017-Nov-30 15:59N 35°27' E 139°40'0 0.0
2017-Nov-30 15:29N 35°27' E 139°40'0 0.0
2017-Nov-30 14:59N 35°27' E 139°40'0 0.0
2017-Nov-30 14:29N 35°27' E 139°40'0 0.0
2017-Nov-30 13:59N 35°27' E 139°40'0 0.0
2017-Nov-30 13:29N 35°27' E 139°40'0 0.0
2017-Nov-30 12:59N 35°27' E 139°40'0 0.0
2017-Nov-30 12:29N 35°27' E 139°40'0 0.0
2017-Nov-30 11:59N 35°27' E 139°40'0 0.0
2017-Nov-30 11:29N 35°27' E 139°40'0 0.0
2017-Nov-30 10:59N 35°27' E 139°40'0 0.0
2017-Nov-30 10:29N 35°27' E 139°40'0 0.0
2017-Nov-30 09:59N 35°27' E 139°40'0 0.0
2017-Nov-30 09:29N 35°27' E 139°40'0 0.0
2017-Nov-30 08:59N 35°27' E 139°40'0 0.0
2017-Nov-30 08:29N 35°27' E 139°40'0 0.0
2017-Nov-30 07:59N 35°27' E 139°40'0 0.0
2017-Nov-30 07:29N 35°27' E 139°40'0 0.0
2017-Nov-30 06:59N 35°27' E 139°40'0 0.0
2017-Nov-30 06:29N 35°27' E 139°40'0 0.0
2017-Nov-30 05:59N 35°27' E 139°40'0 0.0
2017-Nov-30 05:29N 35°27' E 139°40'0 0.0
2017-Nov-30 04:59N 35°27' E 139°40'0 0.0
2017-Nov-30 04:28N 35°27' E 139°40'0 0.0
2017-Nov-30 03:55N 35°27' E 139°40'0 0.0
2017-Nov-30 03:28N 35°27' E 139°40'0 0.0
2017-Nov-30 02:59N 35°27' E 139°40'0 0.0
2017-Nov-30 02:28N 35°27' E 139°40'0 0.0
2017-Nov-30 01:58N 35°27' E 139°40'0 0.0
2017-Nov-30 01:28N 35°27' E 139°40'0 0.0
2017-Nov-30 00:55N 35°27' E 139°40'0 0.0
2017-Nov-30 00:25N 35°27' E 139°40'0 0.0
2017-Nov-29 23:58N 35°27' E 139°40'0 0.0
2017-Nov-29 23:28N 35°27' E 139°40'0 0.0
2017-Nov-29 22:58N 35°27' E 139°40'0 0.0
2017-Nov-29 22:28N 35°27' E 139°40'0 0.8
2017-Nov-29 22:00N 35°27' E 139°41'2 4.6
2017-Nov-29 21:30N 35°25' E 139°43'3 5.9
2017-Nov-29 21:00N 35°23' E 139°43'5 9.1
2017-Nov-29 20:31N 35°18' E 139°44'5 9.6
2017-Nov-29 20:00N 35°14' E 139°47'4 8.6
2017-Nov-29 19:30N 35°09' E 139°47'4 8.3
2017-Nov-29 19:00N 35°05' E 139°46'4 8.6
2017-Nov-29 18:30N 35°03' E 139°41'4 8.8
2017-Nov-29 18:00N 35°00' E 139°37'5 9.7
2017-Nov-29 17:30N 34°57' E 139°33'610.6
2017-Nov-29 16:59N 34°54' E 139°27'510.7
2017-Nov-29 16:29N 34°51' E 139°22'510.7
2017-Nov-29 16:00N 34°48' E 139°17'5 9.6
2017-Nov-29 15:30N 34°44' E 139°13'5 9.2
2017-Nov-29 15:00N 34°41' E 139°09'5 9.1
2017-Nov-29 14:30N 34°38' E 139°05'5 8.9
2017-Nov-29 13:56N 34°34' E 139°01'410.0
2017-Nov-29 13:30N 34°31' E 138°57'710.4
2017-Nov-29 12:49N 34°28' E 138°49'512.2
2017-Nov-29 12:25N 34°26' E 138°44'512.1
2017-Nov-29 12:00N 34°24' E 138°38'811.6
2017-Nov-29 11:19N 34°21' E 138°30'411.4
2017-Nov-29 10:59N 34°19' E 138°26'511.0
2017-Nov-29 10:30N 34°17' E 138°20'16610.1
2017-Nov-28 18:06N 33°44' E 135°03'510.9
2017-Nov-28 17:38N 33°47' E 134°58'110.7
2017-Nov-28 17:29N 33°48' E 134°57'6 9.6
2017-Nov-28 16:50N 33°54' E 134°56'310.5
2017-Nov-28 16:30N 33°58' E 134°56'510.5
2017-Nov-28 16:00N 34°03' E 134°56'1111.2
2017-Nov-28 15:00N 34°14' E 134°58'611.7
2017-Nov-28 14:30N 34°20' E 134°59'611.4
2017-Nov-28 14:00N 34°24' E 135°04'611.9
2017-Nov-28 13:30N 34°28' E 135°09'611.4
2017-Nov-28 13:00N 34°33' E 135°13'611.0
2017-Nov-28 12:30N 34°38' E 135°17'3 6.9
2017-Nov-28 12:00N 34°40' E 135°14'0 0.9
2017-Nov-28 11:29N 34°40' E 135°13'0 0.0
2017-Nov-28 10:59N 34°40' E 135°13'0 0.1
2017-Nov-28 10:29N 34°40' E 135°14'0 0.1
2017-Nov-28 09:59N 34°40' E 135°13'0 0.0
2017-Nov-28 09:29N 34°40' E 135°13'0 0.0
2017-Nov-28 08:59N 34°40' E 135°13'0 0.0
2017-Nov-28 08:29N 34°40' E 135°13'0 0.0
2017-Nov-28 07:59N 34°40' E 135°13'0 0.0
2017-Nov-28 07:29N 34°40' E 135°13'0 0.0
2017-Nov-28 06:59N 34°40' E 135°13'0 0.0
2017-Nov-28 06:29N 34°40' E 135°13'0 0.0
2017-Nov-28 05:59N 34°40' E 135°13'0 0.0
2017-Nov-28 05:29N 34°40' E 135°13'0 0.0
2017-Nov-28 04:29N 34°40' E 135°13'0 0.0
2017-Nov-28 03:59N 34°40' E 135°13'0 0.0
2017-Nov-28 03:29N 34°40' E 135°13'0 0.0
2017-Nov-28 02:59N 34°40' E 135°13'0 0.0
2017-Nov-28 02:29N 34°40' E 135°13'0 0.0
2017-Nov-28 01:59N 34°40' E 135°13'0 0.0
2017-Nov-28 01:29N 34°40' E 135°13'0 0.0
2017-Nov-28 00:59N 34°40' E 135°13'0 0.0
2017-Nov-28 00:29N 34°40' E 135°13'0 0.0
2017-Nov-27 23:59N 34°40' E 135°13'0 0.0
2017-Nov-27 23:29N 34°40' E 135°13'0 0.0
2017-Nov-27 22:59N 34°40' E 135°13'0 0.0
2017-Nov-27 22:29N 34°40' E 135°13'0 0.0
2017-Nov-27 21:59N 34°40' E 135°13'0 0.0
2017-Nov-27 21:29N 34°40' E 135°13'0 0.0
2017-Nov-27 20:59N 34°40' E 135°13'0 0.0
2017-Nov-27 20:29N 34°40' E 135°13'0 0.0
2017-Nov-27 19:59N 34°40' E 135°13'0 0.0
2017-Nov-27 19:29N 34°40' E 135°13'0 0.0
2017-Nov-27 18:59N 34°40' E 135°13'0 0.0
2017-Nov-27 18:29N 34°40' E 135°13'0 0.0
2017-Nov-27 17:59N 34°40' E 135°13'0 0.0
2017-Nov-27 17:29N 34°40' E 135°13'0 0.0
2017-Nov-27 16:59N 34°40' E 135°13'0 0.0
2017-Nov-27 16:29N 34°40' E 135°13'0 0.0
2017-Nov-27 15:59N 34°40' E 135°13'0 0.0
2017-Nov-27 15:29N 34°40' E 135°13'0 0.0
2017-Nov-27 14:59N 34°40' E 135°13'0 0.0
2017-Nov-27 14:29N 34°40' E 135°13'0 0.0
2017-Nov-27 13:59N 34°40' E 135°13'0 0.0
2017-Nov-27 13:29N 34°40' E 135°13'0 0.0
2017-Nov-27 12:59N 34°40' E 135°13'0 0.0
2017-Nov-27 12:29N 34°40' E 135°13'0 0.0
2017-Nov-27 11:59N 34°40' E 135°13'0 0.0
2017-Nov-27 11:29N 34°40' E 135°13'  

Dump ship's entire track history